Time;durP1;ratioP1;P1;durP2;ratioP2;P2;SDS_P1;SDS_P2;PMS_P1;PMS_P2;Temp;Humidity;BMP_temperature;BMP_pressure;BME280_temperature;BME280_humidity;BME280_pressure;Samples;Min_cycle;Max_cycle;Signal;HPM_P1;HPM_P2
2022/06/06 00:02:23;;;;;;;;;;;15.80;99.90;;;;;;5055175;28;19924;-74
2022/06/06 00:04:52;;;;;;;;;;;15.80;99.90;;;;;;5054317;28;19994;-74
2022/06/06 00:07:18;;;;;;;;;;;15.80;99.90;;;;;;5036934;28;19935;-74
2022/06/06 00:09:45;;;;;;;;;;;15.80;99.90;;;;;;5037151;28;20434;-74
2022/06/06 00:12:12;;;;;;;;;;;15.80;99.90;;;;;;5035408;28;20357;-74
2022/06/06 00:14:39;;;;;;;;;;;15.80;99.90;;;;;;5054381;28;19974;-73
2022/06/06 00:17:05;;;;;;;;;;;15.70;99.90;;;;;;5036334;28;19924;-73
2022/06/06 00:19:32;;;;;;;;;;;15.70;99.90;;;;;;5036332;28;19925;-73
2022/06/06 00:22:00;;;;;;;;;;;15.70;99.90;;;;;;5037327;28;19920;-73
2022/06/06 00:24:27;;;;;;;;;;;15.70;99.90;;;;;;5053949;28;19994;-73
2022/06/06 00:26:54;;;;;;;;;;;15.70;99.90;;;;;;5036577;28;20295;-73
2022/06/06 00:29:21;;;;;;;;;;;15.60;99.90;;;;;;5036932;28;19925;-74
2022/06/06 00:34:51;;;;;;;;;;;15.60;99.90;;;;;;5036312;28;20241;-75
2022/06/06 00:37:21;;;;;;;;;;;15.50;99.90;;;;;;5036729;28;19921;-75
2022/06/06 00:39:48;;;;;;;;;;;15.50;99.90;;;;;;5053610;28;20296;-74
2022/06/06 00:42:18;;;;;;;;;;;15.50;99.90;;;;;;5054056;28;20407;-75
2022/06/06 00:44:45;;;;;;;;;;;15.50;99.90;;;;;;5036515;28;19927;-76
2022/06/06 00:47:15;;;;;;;;;;;15.50;99.90;;;;;;5036266;28;20365;-75
2022/06/06 00:49:44;;;;;;;;;;;15.50;99.90;;;;;;5052681;28;20430;-75
2022/06/06 00:52:14;;;;;;;;;;;15.50;99.90;;;;;;5054010;28;19985;-75
2022/06/06 00:54:43;;;;;;;;;;;15.50;99.90;;;;;;5054453;28;19921;-75
2022/06/06 00:57:13;;;;;;;;;;;15.50;99.90;;;;;;5054011;28;20369;-75
2022/06/06 00:59:42;;;;;;;;;;;15.50;99.90;;;;;;5035583;28;19968;-74
2022/06/06 01:02:10;;;;;;;;;;;15.50;99.90;;;;;;5053647;28;20376;-75
2022/06/06 01:04:38;;;;;;;;;;;15.50;99.90;;;;;;5053800;28;19929;-75
2022/06/06 01:07:05;;;;;;;;;;;15.50;99.90;;;;;;5035384;28;20252;-74
2022/06/06 01:09:32;;;;;;;;;;;15.50;99.90;;;;;;5053240;28;20360;-75
2022/06/06 01:12:01;;;;;;;;;;;15.50;99.90;;;;;;5053943;28;19920;-75
2022/06/06 01:14:34;;;;;;;;;;;15.40;99.90;;;;;;5037211;28;19979;-74
2022/06/06 01:17:02;;;;;;;;;;;15.40;99.90;;;;;;5056121;28;19966;-75
2022/06/06 01:19:50;;;;;;;;;;;15.40;99.90;;;;;;5082068;28;19924;-76
2022/06/06 01:22:37;;;;;;;;;;;15.40;99.90;;;;;;5061611;28;19920;-75
2022/06/06 01:25:22;;;;;;;;;;;15.30;99.90;;;;;;5039806;28;20003;-75
2022/06/06 01:27:57;;;;;;;;;;;15.30;99.90;;;;;;5005765;28;19987;-74
2022/06/06 01:30:28;;;;;;;;;;;15.30;99.90;;;;;;5035292;28;19924;-74
2022/06/06 01:32:55;;;;;;;;;;;15.20;99.90;;;;;;5053317;28;19967;-74
2022/06/06 01:35:23;;;;;;;;;;;15.20;99.90;;;;;;5052938;28;20334;-73
2022/06/06 01:37:50;;;;;;;;;;;15.10;99.90;;;;;;5053149;28;19924;-73
2022/06/06 01:40:17;;;;;;;;;;;15.00;99.90;;;;;;5055641;28;19940;-73
2022/06/06 01:42:46;;;;;;;;;;;15.00;99.90;;;;;;5072609;28;20375;-73
2022/06/06 01:45:16;;;;;;;;;;;14.90;99.90;;;;;;5040718;28;19921;-73
2022/06/06 01:47:47;;;;;;;;;;;14.90;99.90;;;;;;5035635;28;19929;-73
2022/06/06 01:50:14;;;;;;;;;;;14.80;99.90;;;;;;5052641;28;20372;-74
2022/06/06 01:52:54;;;;;;;;;;;14.80;99.90;;;;;;5035304;28;19924;-73
2022/06/06 01:55:21;;;;;;;;;;;14.80;99.90;;;;;;5053183;28;19928;-73
2022/06/06 01:57:49;;;;;;;;;;;14.70;99.90;;;;;;5052028;28;20348;-73
2022/06/06 02:00:16;;;;;;;;;;;14.70;99.90;;;;;;5069395;28;20268;-73
2022/06/06 02:02:45;;;;;;;;;;;14.70;99.90;;;;;;5072754;28;19963;-73
2022/06/06 02:05:12;;;;;;;;;;;14.60;99.90;;;;;;5072789;28;19920;-73
2022/06/06 02:07:39;;;;;;;;;;;14.60;99.90;;;;;;5055283;28;19928;-73
2022/06/06 02:10:08;;;;;;;;;;;14.60;99.90;;;;;;5041785;28;19920;-73
2022/06/06 02:12:35;;;;;;;;;;;14.60;99.90;;;;;;5052942;28;19986;-73
2022/06/06 02:15:02;;;;;;;;;;;14.50;99.90;;;;;;5035448;28;19928;-73
2022/06/06 02:17:28;;;;;;;;;;;14.50;99.90;;;;;;5034743;28;19928;-74
2022/06/06 02:19:56;;;;;;;;;;;14.40;99.90;;;;;;5049164;28;19971;-73
2022/06/06 02:22:23;;;;;;;;;;;14.40;99.90;;;;;;5039296;28;20368;-73
2022/06/06 02:24:50;;;;;;;;;;;14.40;99.90;;;;;;5056127;28;19982;-74
2022/06/06 02:27:16;;;;;;;;;;;14.30;99.90;;;;;;5056637;28;19921;-73
2022/06/06 02:29:43;;;;;;;;;;;14.40;99.90;;;;;;5039242;28;20364;-73
2022/06/06 02:32:11;;;;;;;;;;;14.30;99.90;;;;;;5056139;28;20003;-74
2022/06/06 02:34:38;;;;;;;;;;;14.30;99.90;;;;;;5053300;28;19927;-75
2022/06/06 02:37:06;;;;;;;;;;;14.30;99.90;;;;;;5076496;28;19920;-74
2022/06/06 02:39:33;;;;;;;;;;;14.30;99.90;;;;;;5061299;28;19925;-73
2022/06/06 02:42:00;;;;;;;;;;;14.20;99.90;;;;;;5038311;28;19975;-74
2022/06/06 02:44:26;;;;;;;;;;;14.20;99.90;;;;;;5056414;28;20012;-74
2022/06/06 02:46:53;;;;;;;;;;;14.20;99.90;;;;;;5055466;28;19921;-75
2022/06/06 02:49:20;;;;;;;;;;;14.20;99.90;;;;;;5038889;28;19920;-75
2022/06/06 02:51:47;;;;;;;;;;;14.20;99.90;;;;;;5055677;28;19920;-75
2022/06/06 02:54:15;;;;;;;;;;;14.20;99.90;;;;;;5055839;28;20404;-75
2022/06/06 02:56:41;;;;;;;;;;;14.10;99.90;;;;;;5038331;28;19924;-75
2022/06/06 02:59:08;;;;;;;;;;;14.10;99.90;;;;;;5055678;28;19922;-74
2022/06/06 03:01:35;;;;;;;;;;;14.00;99.90;;;;;;5055709;28;19967;-75
2022/06/06 03:04:02;;;;;;;;;;;14.00;99.90;;;;;;5066347;28;19982;-75
2022/06/06 03:06:32;;;;;;;;;;;14.00;99.90;;;;;;5075401;28;19974;-74
2022/06/06 03:09:03;;;;;;;;;;;14.00;99.90;;;;;;5057815;28;19920;-75
2022/06/06 03:11:38;;;;;;;;;;;14.10;99.90;;;;;;5058335;28;20422;-75
2022/06/06 03:14:34;;;;;;;;;;;14.00;99.90;;;;;;5057456;28;20410;-75
2022/06/06 03:22:48;;;;;;;;;;;14.00;99.90;;;;;;5049107;28;20494;-75
2022/06/06 03:25:19;;;;;;;;;;;14.00;99.90;;;;;;5055633;28;19927;-75
2022/06/06 03:27:52;;;;;;;;;;;14.00;99.90;;;;;;5037362;28;19920;-74
2022/06/06 03:30:21;;;;;;;;;;;14.00;99.90;;;;;;5055294;28;19924;-73
2022/06/06 03:32:56;;;;;;;;;;;14.00;99.90;;;;;;5037754;28;19921;-75
2022/06/06 03:35:27;;;;;;;;;;;14.00;99.90;;;;;;5055070;28;19928;-77
2022/06/06 03:37:58;;;;;;;;;;;14.00;99.90;;;;;;5054891;28;19924;-76
2022/06/06 03:40:27;;;;;;;;;;;14.00;99.90;;;;;;5055500;28;19967;-74
2022/06/06 03:42:59;;;;;;;;;;;14.00;99.90;;;;;;5037055;28;19987;-75
2022/06/06 03:45:27;;;;;;;;;;;14.00;99.90;;;;;;5037665;28;19920;-74
2022/06/06 03:47:57;;;;;;;;;;;14.00;99.90;;;;;;5036974;28;20387;-75
2022/06/06 03:50:29;;;;;;;;;;;14.00;99.90;;;;;;5054624;28;19925;-74
2022/06/06 03:52:57;;;;;;;;;;;14.00;99.90;;;;;;5055112;28;19921;-74
2022/06/06 03:55:29;;;;;;;;;;;13.90;99.90;;;;;;5054212;28;19929;-73
2022/06/06 03:57:57;;;;;;;;;;;14.00;99.90;;;;;;5054274;28;19966;-74
2022/06/06 04:00:24;;;;;;;;;;;13.90;99.90;;;;;;5054994;28;19980;-74
2022/06/06 04:02:51;;;;;;;;;;;13.90;99.90;;;;;;5036677;28;19951;-75
2022/06/06 04:05:19;;;;;;;;;;;13.90;99.90;;;;;;5037135;28;20284;-76
2022/06/06 04:07:46;;;;;;;;;;;13.90;99.90;;;;;;5054929;28;19975;-75
2022/06/06 04:10:14;;;;;;;;;;;13.90;99.90;;;;;;5053408;28;20011;-75
2022/06/06 04:12:44;;;;;;;;;;;13.90;99.90;;;;;;5035124;28;20335;-75
2022/06/06 04:15:19;;;;;;;;;;;13.90;99.90;;;;;;5054585;28;19921;-75
2022/06/06 04:17:52;;;;;;;;;;;13.90;99.90;;;;;;5035912;28;20372;-75
2022/06/06 04:20:23;;;;;;;;;;;14.00;99.90;;;;;;5054469;28;19974;-74
2022/06/06 04:23:01;;;;;;;;;;;14.00;99.90;;;;;;5036945;28;20387;-74
2022/06/06 04:25:33;;;;;;;;;;;14.00;99.90;;;;;;5057752;28;20336;-74
2022/06/06 04:28:05;;;;;;;;;;;14.00;99.90;;;;;;5056293;28;19927;-75
2022/06/06 04:30:36;;;;;;;;;;;14.00;99.90;;;;;;5056339;28;19924;-74
2022/06/06 04:33:09;;;;;;;;;;;14.00;99.90;;;;;;5046014;28;19940;-74
2022/06/06 04:35:39;;;;;;;;;;;14.00;99.90;;;;;;5036875;28;19924;-74
2022/06/06 04:38:10;;;;;;;;;;;14.00;99.90;;;;;;5036009;28;19920;-74
2022/06/06 04:40:40;;;;;;;;;;;14.00;99.90;;;;;;5054211;28;19975;-74
2022/06/06 04:43:09;;;;;;;;;;;14.10;99.90;;;;;;5053307;28;19974;-73
2022/06/06 04:45:41;;;;;;;;;;;14.00;99.90;;;;;;5053687;28;19966;-73
2022/06/06 04:48:08;;;;;;;;;;;14.10;99.90;;;;;;5035983;28;19966;-73
2022/06/06 04:50:35;;;;;;;;;;;14.10;99.90;;;;;;5054154;28;20376;-74
2022/06/06 04:53:04;;;;;;;;;;;14.10;99.90;;;;;;5053541;28;19920;-73
2022/06/06 04:55:32;;;;;;;;;;;14.10;99.90;;;;;;5036305;28;19963;-73
2022/06/06 04:58:02;;;;;;;;;;;14.10;99.90;;;;;;5054001;28;19921;-73
2022/06/06 05:00:31;;;;;;;;;;;14.10;99.90;;;;;;5036347;28;20384;-73
2022/06/06 05:02:59;;;;;;;;;;;14.10;99.90;;;;;;5050047;28;19946;-73
2022/06/06 05:05:29;;;;;;;;;;;14.10;99.90;;;;;;5056284;28;19928;-73
2022/06/06 05:08:04;;;;;;;;;;;14.10;99.90;;;;;;5055825;28;20334;-74
2022/06/06 05:10:37;;;;;;;;;;;14.10;99.90;;;;;;5073818;28;19981;-74
2022/06/06 05:13:13;;;;;;;;;;;14.10;99.90;;;;;;5042704;28;20408;-74
2022/06/06 05:15:47;;;;;;;;;;;14.20;99.90;;;;;;5035880;28;19921;-74
2022/06/06 05:18:20;;;;;;;;;;;14.00;99.90;;;;;;5035897;28;19924;-74
2022/06/06 05:20:58;;;;;;;;;;;14.00;99.90;;;;;;5053148;28;19925;-74
2022/06/06 05:23:40;;;;;;;;;;;13.90;99.90;;;;;;5053491;28;19921;-75
2022/06/06 05:26:18;;;;;;;;;;;13.90;99.90;;;;;;5053310;28;20281;-74
2022/06/06 05:28:52;;;;;;;;;;;13.90;99.90;;;;;;5052710;28;19924;-75
2022/06/06 05:31:27;;;;;;;;;;;13.90;99.90;;;;;;5054343;28;19947;-75
2022/06/06 05:33:57;;;;;;;;;;;13.80;99.90;;;;;;5035239;28;20360;-75
2022/06/06 05:36:42;;;;;;;;;;;13.80;99.90;;;;;;5053503;28;19982;-75
2022/06/06 05:39:18;;;;;;;;;;;13.80;99.90;;;;;;5035487;28;20019;-75
2022/06/06 05:41:57;;;;;;;;;;;13.80;99.90;;;;;;5053877;28;19931;-74
2022/06/06 05:44:29;;;;;;;;;;;13.70;99.90;;;;;;5035284;28;19966;-73
2022/06/06 05:47:01;;;;;;;;;;;13.80;99.90;;;;;;5041652;28;19970;-75
2022/06/06 05:49:33;;;;;;;;;;;13.70;99.90;;;;;;5072819;28;19989;-74
2022/06/06 05:52:12;;;;;;;;;;;13.80;99.90;;;;;;5073663;28;19920;-75
2022/06/06 05:54:47;;;;;;;;;;;13.70;99.90;;;;;;5074915;28;19926;-74
2022/06/06 05:57:27;;;;;;;;;;;13.70;99.90;;;;;;5059035;28;19970;-73
2022/06/06 06:00:06;;;;;;;;;;;13.70;99.90;;;;;;5059686;28;20284;-74
2022/06/06 06:02:44;;;;;;;;;;;13.70;99.90;;;;;;5058453;28;19924;-74
2022/06/06 06:05:15;;;;;;;;;;;13.70;99.90;;;;;;5059110;28;19921;-75
2022/06/06 06:07:48;;;;;;;;;;;13.70;99.90;;;;;;5076766;28;19920;-74
2022/06/06 06:10:16;;;;;;;;;;;13.70;99.90;;;;;;5054790;28;19946;-74
2022/06/06 06:12:51;;;;;;;;;;;13.70;99.90;;;;;;5048084;28;19974;-74
2022/06/06 06:15:26;;;;;;;;;;;13.80;99.90;;;;;;5053478;28;20372;-74
2022/06/06 06:17:54;;;;;;;;;;;13.80;99.90;;;;;;5052992;28;19965;-72
2022/06/06 06:20:24;;;;;;;;;;;13.80;99.90;;;;;;5057401;28;20025;-74
2022/06/06 06:22:52;;;;;;;;;;;13.70;99.90;;;;;;5055650;28;19931;-74
2022/06/06 06:25:19;;;;;;;;;;;13.80;99.90;;;;;;5068461;28;19977;-73
2022/06/06 06:27:46;;;;;;;;;;;13.70;99.90;;;;;;5050639;28;19929;-73
2022/06/06 06:30:13;;;;;;;;;;;13.70;99.90;;;;;;5070133;28;20307;-74
2022/06/06 06:32:56;;;;;;;;;;;13.70;99.90;;;;;;5047389;28;19921;-75
2022/06/06 06:35:29;;;;;;;;;;;13.60;99.90;;;;;;5050313;28;19920;-73
2022/06/06 06:38:03;;;;;;;;;;;13.60;99.90;;;;;;5046259;28;19924;-75
2022/06/06 06:40:35;;;;;;;;;;;13.60;99.90;;;;;;5074209;28;20379;-75
2022/06/06 06:43:08;;;;;;;;;;;13.60;99.90;;;;;;5065589;28;19924;-77
2022/06/06 06:45:37;;;;;;;;;;;13.60;99.90;;;;;;5067242;28;19966;-75
2022/06/06 06:48:08;;;;;;;;;;;13.70;99.90;;;;;;5070710;28;20785;-75
2022/06/06 06:50:40;;;;;;;;;;;13.70;99.90;;;;;;5050725;28;19920;-74
2022/06/06 06:53:16;;;;;;;;;;;13.80;99.90;;;;;;5051572;28;19924;-75
2022/06/06 06:55:49;;;;;;;;;;;13.90;99.90;;;;;;5055595;28;19920;-74
2022/06/06 06:58:24;;;;;;;;;;;14.00;99.90;;;;;;5045630;28;19928;-75
2022/06/06 07:00:53;;;;;;;;;;;14.10;99.90;;;;;;5049236;28;20445;-75
2022/06/06 07:09:11;;;;;;;;;;;14.20;99.90;;;;;;5066073;28;19924;-74
2022/06/06 07:11:53;;;;;;;;;;;14.40;99.90;;;;;;5070572;28;19932;-74
2022/06/06 07:14:25;;;;;;;;;;;14.60;99.90;;;;;;5053560;28;19970;-75
2022/06/06 07:16:56;;;;;;;;;;;14.90;99.90;;;;;;5047447;28;19920;-76
2022/06/06 07:19:25;;;;;;;;;;;14.80;99.90;;;;;;5068313;28;19979;-76
2022/06/06 07:21:53;;;;;;;;;;;14.70;99.90;;;;;;5065530;28;20281;-72
2022/06/06 07:24:21;;;;;;;;;;;14.70;99.90;;;;;;5068862;28;19932;-73
2022/06/06 07:26:48;;;;;;;;;;;14.70;99.90;;;;;;5051078;28;20303;-73
2022/06/06 07:29:16;;;;;;;;;;;14.60;99.90;;;;;;5048522;28;20011;-75
2022/06/06 07:31:48;;;;;;;;;;;14.70;99.90;;;;;;5046894;28;19967;-74
2022/06/06 07:34:23;;;;;;;;;;;14.80;99.90;;;;;;5053015;28;20423;-74
2022/06/06 07:36:56;;;;;;;;;;;15.00;99.90;;;;;;5062859;28;20014;-76
2022/06/06 07:39:27;;;;;;;;;;;15.30;99.90;;;;;;5049672;28;20401;-76
2022/06/06 07:41:59;;;;;;;;;;;15.30;99.90;;;;;;5069839;28;19974;-76
2022/06/06 07:44:41;;;;;;;;;;;15.30;99.90;;;;;;5066776;28;20334;-75
2022/06/06 07:47:18;;;;;;;;;;;15.20;99.90;;;;;;5059424;28;19928;-75
2022/06/06 07:49:47;;;;;;;;;;;15.20;99.90;;;;;;5068248;28;19920;-75
2022/06/06 07:52:20;;;;;;;;;;;15.20;99.90;;;;;;5067695;28;20380;-75
2022/06/06 07:54:51;;;;;;;;;;;15.30;99.90;;;;;;5057130;28;19920;-76
2022/06/06 07:57:24;;;;;;;;;;;15.50;99.90;;;;;;5074543;28;19921;-75
2022/06/06 07:59:55;;;;;;;;;;;15.70;99.90;;;;;;5053493;28;19924;-76
2022/06/06 08:02:42;;;;;;;;;;;16.00;99.90;;;;;;5068466;28;19943;-76
2022/06/06 08:05:15;;;;;;;;;;;16.40;99.90;;;;;;5048066;28;19920;-76
2022/06/06 08:07:49;;;;;;;;;;;16.90;99.90;;;;;;5051534;28;19920;-76
2022/06/06 08:10:22;;;;;;;;;;;16.90;99.90;;;;;;5037163;28;20311;-72
2022/06/06 08:12:55;;;;;;;;;;;16.90;99.90;;;;;;5054293;28;19920;-75
2022/06/06 08:15:27;;;;;;;;;;;16.80;99.90;;;;;;5043375;28;19971;-75
2022/06/06 08:18:03;;;;;;;;;;;16.80;99.90;;;;;;5076372;28;19943;-75
2022/06/06 08:20:36;;;;;;;;;;;16.60;99.90;;;;;;5080490;28;19920;-75
2022/06/06 08:23:05;;;;;;;;;;;16.40;99.90;;;;;;5094922;28;19924;-71
2022/06/06 08:25:35;;;;;;;;;;;16.30;99.90;;;;;;5076159;28;19923;-75
2022/06/06 08:28:02;;;;;;;;;;;16.20;99.90;;;;;;5094480;28;20011;-75
2022/06/06 08:30:30;;;;;;;;;;;16.20;99.90;;;;;;5075791;28;19924;-74
2022/06/06 08:32:57;;;;;;;;;;;16.40;99.90;;;;;;5086075;28;20428;-75
2022/06/06 08:35:26;;;;;;;;;;;16.60;99.90;;;;;;5056548;28;19969;-76
2022/06/06 08:38:05;;;;;;;;;;;16.80;99.90;;;;;;5073442;28;19924;-76
2022/06/06 08:40:49;;;;;;;;;;;16.90;99.90;;;;;;5056460;28;19921;-75
2022/06/06 08:43:19;;;;;;;;;;;17.10;99.90;;;;;;5057504;28;19966;-75
2022/06/06 08:45:50;;;;;;;;;;;17.60;99.90;;;;;;5041498;28;19925;-76
2022/06/06 08:48:28;;;;;;;;;;;18.10;99.90;;;;;;5053708;28;19968;-76
2022/06/06 08:50:59;;;;;;;;;;;18.20;99.90;;;;;;5034132;28;19921;-76
2022/06/06 08:53:46;;;;;;;;;;;17.90;99.90;;;;;;5045208;28;19920;-75
2022/06/06 08:56:28;;;;;;;;;;;17.40;99.90;;;;;;5052515;28;19921;-75
2022/06/06 08:59:07;;;;;;;;;;;17.00;99.90;;;;;;5048409;28;20353;-77
2022/06/06 09:01:45;;;;;;;;;;;16.90;99.90;;;;;;5052322;28;19921;-75
2022/06/06 09:04:33;;;;;;;;;;;16.80;99.90;;;;;;5039430;28;19920;-76
2022/06/06 09:07:18;;;;;;;;;;;16.60;99.90;;;;;;5045164;28;19990;-75
2022/06/06 09:10:20;;;;;;;;;;;16.50;99.90;;;;;;5063451;28;20371;-76
2022/06/06 09:13:03;;;;;;;;;;;16.40;99.90;;;;;;5061691;28;19928;-76
2022/06/06 09:15:47;;;;;;;;;;;16.20;99.90;;;;;;5064568;28;19927;-75
2022/06/06 09:18:44;;;;;;;;;;;16.20;99.90;;;;;;5066189;28;19963;-76
2022/06/06 09:21:36;;;;;;;;;;;16.40;99.90;;;;;;5061931;28;19920;-76
2022/06/06 09:24:19;;;;;;;;;;;16.50;99.90;;;;;;5038954;28;19928;-76
2022/06/06 09:26:52;;;;;;;;;;;16.40;99.90;;;;;;5043654;28;20850;-75
2022/06/06 09:29:37;;;;;;;;;;;16.60;99.90;;;;;;5041441;28;19925;-75
2022/06/06 09:32:18;;;;;;;;;;;17.30;99.90;;;;;;5052966;28;19928;-75
2022/06/06 09:34:56;;;;;;;;;;;18.20;99.90;;;;;;5033188;28;19925;-74
2022/06/06 09:37:38;;;;;;;;;;;19.40;99.90;;;;;;5063618;28;19920;-75
2022/06/06 09:40:18;;;;;;;;;;;19.70;99.90;;;;;;5055088;28;19963;-76
2022/06/06 09:42:55;;;;;;;;;;;20.20;99.90;;;;;;5071489;28;19920;-75
2022/06/06 09:45:30;;;;;;;;;;;20.60;99.90;;;;;;5070903;28;19924;-76
2022/06/06 09:48:13;;;;;;;;;;;20.00;99.90;;;;;;5068845;28;20338;-87
2022/06/06 09:50:54;;;;;;;;;;;19.60;99.90;;;;;;5040033;28;19921;-73
2022/06/06 09:53:45;;;;;;;;;;;19.70;99.90;;;;;;5038803;28;20381;-75
2022/06/06 09:59:34;;;;;;;;;;;20.50;99.90;;;;;;5066370;28;19920;-75
2022/06/06 10:02:12;;;;;;;;;;;21.00;99.90;;;;;;5049668;28;19970;-76
2022/06/06 10:04:56;;;;;;;;;;;20.90;99.90;;;;;;5052307;28;19943;-75
2022/06/06 10:07:41;;;;;;;;;;;21.20;99.90;;;;;;5056256;28;19921;-74
2022/06/06 10:10:29;;;;;;;;;;;21.30;99.90;;;;;;5033165;28;19924;-72
2022/06/06 10:13:17;;;;;;;;;;;21.50;99.90;;;;;;5066505;28;20395;-73
2022/06/06 10:16:01;;;;;;;;;;;21.60;99.50;;;;;;5046365;28;19921;-72
2022/06/06 10:18:49;;;;;;;;;;;21.50;99.90;;;;;;5053249;28;19928;-72
2022/06/06 10:21:30;;;;;;;;;;;21.90;99.90;;;;;;5055930;28;19947;-73
2022/06/06 10:24:12;;;;;;;;;;;22.20;99.80;;;;;;5054182;28;19924;-74
2022/06/06 10:26:46;;;;;;;;;;;22.30;99.20;;;;;;5033509;28;19925;-73
2022/06/06 10:29:28;;;;;;;;;;;21.80;98.40;;;;;;5049093;28;20403;-72
2022/06/06 10:32:12;;;;;;;;;;;21.60;98.60;;;;;;5043099;28;19982;-73
2022/06/06 10:34:56;;;;;;;;;;;21.30;99.50;;;;;;5034828;28;19978;-71
2022/06/06 10:37:32;;;;;;;;;;;21.50;99.90;;;;;;5037038;28;19920;-72
2022/06/06 10:40:07;;;;;;;;;;;21.60;99.00;;;;;;5038975;28;19928;-72
2022/06/06 10:42:48;;;;;;;;;;;21.60;98.70;;;;;;5056892;28;19920;-71
2022/06/06 10:45:23;;;;;;;;;;;21.60;98.90;;;;;;5060093;28;19927;-72
2022/06/06 10:47:58;;;;;;;;;;;21.20;97.80;;;;;;5068393;28;19924;-73
2022/06/06 10:50:36;;;;;;;;;;;21.00;98.60;;;;;;5037606;28;19927;-71
2022/06/06 10:53:20;;;;;;;;;;;21.40;98.10;;;;;;5054308;28;19920;-72
2022/06/06 10:56:07;;;;;;;;;;;21.90;97.90;;;;;;5046753;28;19925;-72
2022/06/06 10:58:47;;;;;;;;;;;22.20;95.40;;;;;;5049579;28;19928;-72
2022/06/06 11:01:35;;;;;;;;;;;22.40;96.10;;;;;;5055609;28;19928;-72
2022/06/06 11:04:19;;;;;;;;;;;23.10;96.70;;;;;;5039675;28;19925;-71
2022/06/06 11:06:57;;;;;;;;;;;22.10;96.60;;;;;;5057612;28;19921;-71
2022/06/06 11:09:32;;;;;;;;;;;21.50;97.80;;;;;;5056151;28;19921;-72
2022/06/06 11:12:32;;;;;;;;;;;21.00;98.90;;;;;;5069006;28;19978;-72
2022/06/06 11:15:00;;;;;;;;;;;20.80;99.60;;;;;;4982584;28;19929;-68
2022/06/06 11:17:32;;;;;;;;;;;20.50;99.90;;;;;;5003003;28;19928;-69
2022/06/06 11:20:21;;;;;;;;;;;20.70;99.90;;;;;;5021319;28;19928;-69
2022/06/06 11:22:52;;;;;;;;;;;20.60;99.60;;;;;;5053841;28;20292;-68
2022/06/06 11:25:21;;;;;;;;;;;21.00;99.20;;;;;;5040532;28;19987;-69
2022/06/06 11:27:58;;;;;;;;;;;21.20;96.80;;;;;;5055802;28;19936;-69
2022/06/06 11:30:33;;;;;;;;;;;21.10;96.00;;;;;;5054654;28;19927;-70
2022/06/06 11:33:26;;;;;;;;;;;20.60;95.90;;;;;;5048596;28;19924;-69
2022/06/06 11:36:20;;;;;;;;;;;20.20;98.80;;;;;;5056717;28;19935;-68
2022/06/06 11:39:07;;;;;;;;;;;19.50;99.90;;;;;;5009569;28;19947;-69
2022/06/06 11:41:58;;;;;;;;;;;19.00;99.90;;;;;;5043822;28;19920;-69
2022/06/06 11:44:45;;;;;;;;;;;19.20;99.90;;;;;;5043036;28;19931;-69
2022/06/06 11:47:25;;;;;;;;;;;20.20;99.90;;;;;;5027543;28;19924;-69
2022/06/06 11:50:21;;;;;;;;;;;20.40;99.90;;;;;;5045266;28;19971;-68
2022/06/06 11:53:09;;;;;;;;;;;20.60;99.90;;;;;;4999591;28;20313;-69
2022/06/06 11:55:43;;;;;;;;;;;20.40;99.90;;;;;;5048700;28;19921;-70
2022/06/06 11:58:25;;;;;;;;;;;19.90;99.90;;;;;;5067232;28;19927;-69
2022/06/06 12:01:03;;;;;;;;;;;19.70;99.90;;;;;;5048679;28;20022;-68
2022/06/06 12:03:57;;;;;;;;;;;19.60;99.90;;;;;;5043843;28;19921;-68
2022/06/06 12:06:42;;;;;;;;;;;19.30;99.90;;;;;;5018503;28;20336;-69
2022/06/06 12:09:23;;;;;;;;;;;19.10;99.90;;;;;;5054487;28;19928;-69
2022/06/06 12:12:09;;;;;;;;;;;18.90;99.90;;;;;;5053168;28;19925;-68
2022/06/06 12:14:50;;;;;;;;;;;18.60;99.90;;;;;;5055198;28;20003;-68
2022/06/06 12:17:23;;;;;;;;;;;18.50;99.90;;;;;;5009225;28;19927;-68
2022/06/06 12:20:05;;;;;;;;;;;18.50;99.90;;;;;;5061500;28;19924;-69
2022/06/06 12:22:49;;;;;;;;;;;18.50;99.90;;;;;;5057517;28;20335;-70
2022/06/06 12:25:32;;;;;;;;;;;18.80;99.90;;;;;;5039606;28;19966;-68
2022/06/06 12:28:10;;;;;;;;;;;19.30;99.90;;;;;;5048351;28;19920;-69
2022/06/06 12:30:46;;;;;;;;;;;19.50;99.90;;;;;;5038588;28;20332;-69
2022/06/06 12:33:17;;;;;;;;;;;19.50;99.90;;;;;;5052803;28;19993;-69
2022/06/06 12:35:48;;;;;;;;;;;19.10;99.90;;;;;;5050216;28;19982;-70
2022/06/06 12:38:19;;;;;;;;;;;18.60;99.90;;;;;;5061220;28;19970;-69
2022/06/06 12:40:56;;;;;;;;;;;17.40;99.90;;;;;;5073138;28;19981;-70
2022/06/06 12:43:30;;;;;;;;;;;16.60;99.90;;;;;;5063108;28;19963;-68
2022/06/06 12:46:04;;;;;;;;;;;16.00;99.90;;;;;;5055486;28;19928;-69
2022/06/06 12:48:50;;;;;;;;;;;15.50;99.90;;;;;;5034925;28;19920;-69
2022/06/06 12:51:19;;;;;;;;;;;15.20;99.90;;;;;;5034443;28;19928;-69
2022/06/06 12:54:13;;;;;;;;;;;15.00;99.90;;;;;;5052364;28;19984;-69
2022/06/06 12:56:48;;;;;;;;;;;14.90;99.90;;;;;;5053476;28;19931;-69
2022/06/06 12:59:19;;;;;;;;;;;14.90;99.90;;;;;;5068371;28;20004;-68
2022/06/06 13:01:51;;;;;;;;;;;14.80;99.90;;;;;;5055969;28;20399;-68
2022/06/06 13:04:37;;;;;;;;;;;14.80;99.90;;;;;;5053548;28;19921;-70
2022/06/06 13:07:17;;;;;;;;;;;14.70;99.90;;;;;;5054993;28;19978;-69
2022/06/06 13:09:55;;;;;;;;;;;14.60;99.90;;;;;;5039514;28;19984;-68
2022/06/06 13:12:29;;;;;;;;;;;14.50;99.90;;;;;;5039485;28;19966;-69
2022/06/06 13:15:03;;;;;;;;;;;14.30;99.90;;;;;;5036315;28;19921;-69
2022/06/06 13:17:36;;;;;;;;;;;14.30;99.90;;;;;;5062758;28;19932;-68
2022/06/06 13:20:11;;;;;;;;;;;14.40;99.90;;;;;;5043029;28;20339;-68
2022/06/06 13:22:50;;;;;;;;;;;14.50;99.90;;;;;;5064125;28;19970;-69
2022/06/06 13:25:22;;;;;;;;;;;14.70;99.90;;;;;;5060503;28;19936;-69
2022/06/06 13:27:59;;;;;;;;;;;14.80;99.90;;;;;;5052145;28;20575;-69
2022/06/06 13:30:27;;;;;;;;;;;15.00;99.90;;;;;;5040037;28;19921;-69
2022/06/06 13:33:01;;;;;;;;;;;15.10;99.90;;;;;;5063490;28;19924;-69
2022/06/06 13:35:32;;;;;;;;;;;15.20;99.90;;;;;;5062372;28;19954;-68
2022/06/06 13:38:15;;;;;;;;;;;15.20;99.90;;;;;;5061142;28;20446;-69
2022/06/06 13:40:43;;;;;;;;;;;15.20;99.90;;;;;;5038431;28;19966;-70
2022/06/06 13:43:33;;;;;;;;;;;15.10;99.90;;;;;;5048563;28;19976;-69
2022/06/06 13:46:12;;;;;;;;;;;15.00;99.90;;;;;;5055833;28;19924;-69
2022/06/06 13:48:45;;;;;;;;;;;14.80;99.90;;;;;;5038168;28;20449;-69
2022/06/06 13:51:20;;;;;;;;;;;14.70;99.90;;;;;;5034102;28;19974;-67
2022/06/06 13:54:02;;;;;;;;;;;14.40;99.90;;;;;;5055530;28;20289;-69
2022/06/06 13:56:40;;;;;;;;;;;14.40;99.90;;;;;;5038393;28;19970;-69
2022/06/06 13:59:15;;;;;;;;;;;14.20;99.90;;;;;;5056301;28;20445;-71
2022/06/06 14:01:46;;;;;;;;;;;14.10;99.90;;;;;;5039593;28;20368;-70
2022/06/06 14:04:31;;;;;;;;;;;14.10;99.90;;;;;;5049352;28;19921;-69
2022/06/06 14:07:12;;;;;;;;;;;14.00;99.90;;;;;;5037074;28;19931;-68
2022/06/06 14:09:42;;;;;;;;;;;14.00;99.90;;;;;;5040451;28;20332;-69
2022/06/06 14:12:28;;;;;;;;;;;13.90;99.90;;;;;;5050670;28;20349;-69
2022/06/06 14:15:00;;;;;;;;;;;13.90;99.90;;;;;;5033836;28;20369;-68
2022/06/06 14:17:29;;;;;;;;;;;13.80;99.90;;;;;;5057646;28;19924;-68
2022/06/06 14:20:00;;;;;;;;;;;13.70;99.90;;;;;;5055423;28;19920;-69
2022/06/06 14:22:28;;;;;;;;;;;13.70;99.90;;;;;;5050676;28;19920;-69
2022/06/06 14:24:56;;;;;;;;;;;13.70;99.90;;;;;;5064122;28;19924;-68
2022/06/06 14:27:24;;;;;;;;;;;13.70;99.90;;;;;;5047236;28;19925;-69
2022/06/06 14:29:57;;;;;;;;;;;13.70;99.90;;;;;;5056765;28;19981;-69
2022/06/06 14:32:24;;;;;;;;;;;13.70;99.90;;;;;;5037733;28;20490;-72
2022/06/06 14:34:52;;;;;;;;;;;13.60;99.90;;;;;;5040790;28;20446;-70
2022/06/06 14:37:20;;;;;;;;;;;13.60;99.90;;;;;;5066779;28;19928;-70
2022/06/06 14:39:48;;;;;;;;;;;13.50;99.90;;;;;;5045651;28;19921;-70
2022/06/06 14:42:17;;;;;;;;;;;13.50;99.90;;;;;;5046551;28;20007;-70
2022/06/06 14:44:45;;;;;;;;;;;13.50;99.90;;;;;;5058128;28;19924;-70
2022/06/06 14:47:14;;;;;;;;;;;13.50;99.90;;;;;;5053505;28;19998;-69
2022/06/06 14:49:43;;;;;;;;;;;13.60;99.90;;;;;;5046357;28;19929;-70
2022/06/06 14:52:11;;;;;;;;;;;13.50;99.90;;;;;;5064175;28;19973;-70
2022/06/06 14:54:38;;;;;;;;;;;13.60;99.90;;;;;;5067614;28;19944;-68
2022/06/06 14:57:05;;;;;;;;;;;13.60;99.90;;;;;;5068184;28;19925;-69
2022/06/06 14:59:39;;;;;;;;;;;13.50;99.90;;;;;;5046080;28;19964;-70
2022/06/06 15:02:11;;;;;;;;;;;13.60;99.90;;;;;;5043797;28;19982;-70
2022/06/06 15:04:38;;;;;;;;;;;13.60;99.90;;;;;;5061502;28;20387;-70
2022/06/06 15:07:05;;;;;;;;;;;13.40;99.90;;;;;;5055189;28;19921;-70
2022/06/06 15:09:35;;;;;;;;;;;13.30;99.90;;;;;;5055988;28;19977;-70
2022/06/06 15:12:02;;;;;;;;;;;13.30;99.90;;;;;;5045622;28;19956;-70
2022/06/06 15:14:30;;;;;;;;;;;13.20;99.90;;;;;;5073895;28;19978;-69